createdAt,value
2023-05-04T06:33:40.363Z,69.43
2023-05-04T06:36:07.422Z,68.70
2023-05-04T06:38:36.737Z,68.55
2023-05-04T06:41:06.053Z,68.40
2023-05-04T06:43:33.203Z,67.47
2023-05-04T06:46:03.626Z,67.42
2023-05-04T06:48:31.302Z,67.15
2023-05-04T06:50:58.830Z,67.15
2023-05-04T06:53:27.066Z,67.00
2023-05-04T06:55:54.147Z,66.67
2023-05-04T06:58:22.074Z,66.48
2023-05-04T07:00:48.956Z,66.16
2023-05-04T07:03:15.973Z,66.35
2023-05-04T07:05:44.882Z,66.13
2023-05-04T07:08:12.710Z,65.95
2023-05-04T07:10:40.150Z,65.04
2023-05-04T07:13:07.204Z,63.61
2023-05-04T07:15:34.356Z,61.86
2023-05-04T07:18:01.589Z,61.65
2023-05-04T07:20:28.884Z,60.03
2023-05-04T07:22:59.372Z,60.13
2023-05-04T07:25:27.311Z,59.64
2023-05-04T07:27:54.164Z,58.81
2023-05-04T07:30:22.061Z,58.85
2023-05-04T07:32:49.250Z,58.70
2023-05-04T07:35:16.515Z,58.57
2023-05-04T07:37:43.516Z,58.34
2023-05-04T07:40:11.681Z,58.43
2023-05-04T07:42:38.733Z,58.16
2023-05-04T07:45:06.551Z,57.77
2023-05-04T07:47:33.354Z,57.20
2023-05-04T07:50:00.156Z,57.48
2023-05-04T07:52:27.794Z,56.46
2023-05-04T07:54:54.989Z,55.41
2023-05-04T07:57:22.253Z,55.18
2023-05-04T07:59:49.132Z,54.30
2023-05-04T08:02:16.058Z,54.20
2023-05-04T08:04:43.002Z,53.52
2023-05-04T08:07:10.879Z,53.50
2023-05-04T08:09:37.764Z,53.42
2023-05-04T08:12:04.739Z,53.61
2023-05-04T08:14:31.613Z,53.29
2023-05-04T08:16:58.326Z,52.72
2023-05-04T08:19:25.255Z,52.80
2023-05-04T08:21:52.047Z,52.62
2023-05-04T08:24:18.920Z,51.51
2023-05-04T08:26:55.724Z,53.41
2023-05-04T08:29:26.939Z,52.93
2023-05-04T08:31:56.406Z,53.15
2023-05-04T08:34:23.284Z,52.61
2023-05-04T08:36:50.107Z,52.54
2023-05-04T08:39:18.813Z,52.32
2023-05-04T08:41:45.836Z,51.66
2023-05-04T08:44:12.668Z,52.07
2023-05-04T08:46:41.248Z,50.25
2023-05-04T08:49:08.324Z,50.78
2023-05-04T08:51:38.230Z,50.99
2023-05-04T08:54:12.296Z,50.92
2023-05-04T08:56:40.518Z,50.66
2023-05-04T08:59:09.854Z,50.58
2023-05-04T09:01:38.859Z,51.69
2023-05-04T09:04:06.805Z,52.29
2023-05-04T09:06:33.675Z,51.82
2023-05-04T09:09:00.533Z,51.79
2023-05-04T09:11:27.418Z,50.88
2023-05-04T09:13:54.140Z,50.29
2023-05-04T09:16:21.604Z,49.63
2023-05-04T09:18:48.589Z,49.76
2023-05-04T09:21:15.594Z,49.58
2023-05-04T09:23:49.554Z,50.03
2023-05-04T09:26:32.720Z,49.57
2023-05-04T09:29:13.868Z,49.11
2023-05-04T09:31:45.037Z,49.86
2023-05-04T09:34:11.748Z,49.11
2023-05-04T09:36:38.554Z,48.86
2023-05-04T09:39:16.072Z,49.35
2023-05-04T09:41:43.634Z,48.58
2023-05-04T09:44:23.411Z,47.96
2023-05-04T09:46:59.788Z,47.62
2023-05-04T09:49:37.141Z,46.74
2023-05-04T09:52:05.226Z,46.57
2023-05-04T09:54:39.460Z,46.25
2023-05-04T09:57:13.344Z,46.30
2023-05-04T09:59:40.595Z,46.31
2023-05-04T10:02:18.622Z,47.39
2023-05-04T10:04:50.945Z,46.98
2023-05-04T10:07:18.323Z,45.96
2023-05-04T10:09:47.065Z,44.81
2023-05-04T10:12:14.735Z,43.72
2023-05-04T10:14:43.071Z,43.79
2023-05-04T10:17:28.138Z,43.46
2023-05-04T10:20:10.761Z,43.43
2023-05-04T10:23:05.756Z,43.14
2023-05-04T10:25:56.628Z,43.56
2023-05-04T10:28:37.416Z,43.21
2023-05-04T10:31:06.490Z,43.13
2023-05-04T10:33:40.902Z,42.50
2023-05-04T10:36:09.835Z,41.97
2023-05-04T10:38:37.898Z,40.90
2023-05-04T10:41:18.599Z,40.81
2023-05-04T10:43:49.285Z,40.43
2023-05-04T10:46:25.719Z,40.16
2023-05-04T10:48:52.688Z,39.90
2023-05-04T10:51:20.514Z,39.77
2023-05-04T10:53:48.248Z,39.37
2023-05-04T10:56:25.538Z,38.40
2023-05-04T10:58:52.748Z,36.94
2023-05-04T11:01:20.653Z,37.59
2023-05-04T11:03:48.876Z,37.76
2023-05-04T11:06:24.054Z,37.36
2023-05-04T11:09:02.603Z,37.35
2023-05-04T11:11:30.260Z,37.78
2023-05-04T11:13:57.744Z,37.99
2023-05-04T11:16:26.135Z,37.54
2023-05-04T11:18:54.840Z,37.03
2023-05-04T11:21:26.106Z,37.36
2023-05-04T11:24:00.427Z,36.88
2023-05-04T11:26:28.711Z,36.61
2023-05-04T11:28:55.621Z,36.53
2023-05-04T11:31:22.685Z,35.89
2023-05-04T11:33:51.563Z,35.25
2023-05-04T11:36:19.362Z,35.28
2023-05-04T11:38:46.332Z,35.04
2023-05-04T11:41:14.176Z,35.59
2023-05-04T11:43:44.299Z,36.00
2023-05-04T11:46:12.068Z,35.32
2023-05-04T11:48:39.847Z,36.13
2023-05-04T11:51:07.061Z,36.36
2023-05-04T11:53:37.718Z,35.31
2023-05-04T11:56:05.084Z,34.87
2023-05-04T11:58:32.035Z,33.71
2023-05-04T12:00:59.349Z,33.17
2023-05-04T12:03:39.673Z,34.41
2023-05-04T12:06:14.886Z,33.49
2023-05-04T12:08:44.597Z,33.39
2023-05-04T12:11:27.755Z,33.13
2023-05-04T12:14:09.883Z,33.11
2023-05-04T12:16:38.185Z,33.95
2023-05-04T12:19:14.231Z,33.92
2023-05-04T12:21:52.540Z,33.70
2023-05-04T12:24:21.998Z,32.96
2023-05-04T12:26:48.909Z,33.50
2023-05-04T12:29:15.714Z,34.34
2023-05-04T12:31:42.462Z,33.87
2023-05-04T12:34:09.386Z,33.12
2023-05-04T12:36:36.146Z,33.79
2023-05-04T12:39:03.212Z,33.83
2023-05-04T12:41:30.415Z,33.71
2023-05-04T12:43:57.119Z,34.26
2023-05-04T12:46:23.992Z,33.70
2023-05-04T12:48:50.954Z,34.09
2023-05-04T12:51:17.770Z,33.06
2023-05-04T12:53:44.724Z,32.32
2023-05-04T12:56:12.887Z,32.57
2023-05-04T12:58:39.592Z,33.06
2023-05-04T13:01:06.410Z,33.38
2023-05-04T13:03:33.374Z,33.81
2023-05-04T13:06:00.333Z,34.64
2023-05-04T13:08:27.094Z,34.01
2023-05-04T13:10:53.864Z,33.99
2023-05-04T13:13:23.266Z,32.46
2023-05-04T13:15:51.017Z,32.30
2023-05-04T13:18:18.043Z,32.88
2023-05-04T13:20:45.907Z,32.42
2023-05-04T13:23:12.918Z,32.81
2023-05-04T13:25:40.047Z,31.94
2023-05-04T13:28:06.971Z,32.67
2023-05-04T13:30:33.709Z,33.04
2023-05-04T13:33:01.497Z,33.49
2023-05-04T13:35:29.281Z,34.00
2023-05-04T17:58:40.313Z,42.72
2023-05-04T18:01:09.590Z,41.74
2023-05-04T18:03:36.390Z,42.76
2023-05-04T18:06:03.312Z,42.58
2023-05-04T18:08:30.034Z,42.57
2023-05-04T18:13:37.160Z,43.62
2023-05-04T18:16:07.344Z,43.63
2023-05-04T18:18:34.257Z,43.40
2023-05-04T18:21:00.985Z,43.02
2023-05-04T18:23:27.620Z,43.13
2023-05-04T18:25:54.364Z,43.36
2023-05-04T18:28:36.074Z,43.64
2023-05-04T18:31:02.867Z,43.48
2023-05-04T18:33:45.351Z,43.75
2023-05-04T18:36:12.303Z,43.67
2023-05-04T18:38:39.315Z,44.00
2023-05-04T18:41:06.308Z,43.98
2023-05-04T18:43:35.888Z,44.10
2023-05-04T18:46:08.681Z,44.32
2023-05-04T18:48:35.353Z,44.52
2023-05-04T18:51:02.934Z,44.87
2023-05-04T18:53:29.924Z,45.28
2023-05-04T18:56:04.034Z,45.21
2023-05-04T18:58:31.312Z,45.39
2023-05-04T19:00:59.242Z,45.74
2023-05-04T19:03:26.269Z,45.96
2023-05-04T19:05:53.255Z,46.25
2023-05-04T19:08:20.691Z,46.44
2023-05-04T19:10:48.566Z,46.52
2023-05-04T19:13:16.979Z,46.91
2023-05-04T19:15:43.670Z,47.01
2023-05-04T19:18:10.800Z,47.25
2023-05-04T19:20:38.055Z,47.46
2023-05-04T19:23:10.455Z,47.78
2023-05-04T19:25:37.098Z,48.11
2023-05-04T19:28:08.794Z,48.21
2023-05-04T19:30:36.943Z,48.54
2023-05-04T19:33:09.121Z,48.80
2023-05-04T19:35:37.726Z,49.06
2023-05-04T19:38:06.768Z,49.39
2023-05-04T19:40:34.483Z,49.76
2023-05-04T19:43:01.143Z,49.99
2023-05-04T19:45:28.881Z,50.14
2023-05-04T19:47:56.019Z,50.44
2023-05-04T19:50:22.663Z,50.64
2023-05-04T19:52:49.463Z,51.00
2023-05-04T19:55:17.205Z,51.22
2023-05-04T19:57:44.176Z,51.57
2023-05-04T20:00:12.821Z,51.89
2023-05-04T20:02:39.719Z,52.10
2023-05-04T20:05:06.549Z,52.42
2023-05-04T20:07:33.238Z,52.73
2023-05-04T20:10:02.636Z,53.19
2023-05-04T20:12:29.771Z,53.30
2023-05-04T20:14:56.427Z,53.37
2023-05-04T20:17:23.697Z,53.67
2023-05-04T20:19:51.504Z,53.91
2023-05-04T20:22:26.834Z,54.26
2023-05-04T20:24:53.918Z,54.49
2023-05-04T20:27:20.668Z,54.85
2023-05-04T20:29:47.224Z,55.04
2023-05-04T20:32:14.440Z,55.08
2023-05-04T20:34:43.160Z,55.26
2023-05-04T20:37:09.919Z,55.34
2023-05-04T20:39:36.633Z,55.62
2023-05-04T20:42:04.766Z,55.81
2023-05-04T20:44:31.376Z,55.90
2023-05-04T20:46:58.394Z,56.10
2023-05-04T20:49:27.667Z,56.32
2023-05-04T20:51:54.374Z,56.65
2023-05-04T20:54:30.111Z,56.92
2023-05-04T20:56:57.878Z,57.01
2023-05-04T20:59:24.539Z,57.22
2023-05-04T21:01:51.426Z,57.36
2023-05-04T21:04:21.586Z,57.53
2023-05-04T21:06:48.542Z,57.77
2023-05-04T21:09:15.742Z,57.97
2023-05-04T21:11:43.526Z,57.98
2023-05-04T21:14:11.394Z,58.22
2023-05-04T21:16:38.342Z,58.15
2023-05-04T21:19:08.456Z,58.27
2023-05-04T21:21:40.145Z,58.50
2023-05-04T21:24:36.577Z,58.48
2023-05-04T21:27:06.500Z,58.81
2023-05-04T21:29:34.657Z,58.81
2023-05-04T21:32:10.265Z,58.99
2023-05-04T21:34:43.040Z,59.14
2023-05-04T21:37:12.219Z,58.96
2023-05-04T21:39:38.987Z,59.30
2023-05-04T21:42:11.104Z,59.25
2023-05-04T21:44:42.380Z,59.42
2023-05-04T21:47:12.024Z,59.41
2023-05-04T21:49:54.625Z,59.87
2023-05-04T21:52:22.801Z,59.75
2023-05-04T21:54:57.058Z,59.84
2023-05-04T22:12:15.079Z,60.21
2023-05-04T22:17:43.865Z,60.45
2023-05-04T22:20:38.083Z,60.73
2023-05-04T22:23:14.762Z,60.78
2023-05-04T22:25:50.633Z,60.78
2023-05-04T22:28:28.880Z,60.96
2023-05-04T22:31:25.617Z,62.14
2023-05-04T22:33:53.538Z,61.62
2023-05-04T22:36:33.474Z,62.39
2023-05-04T22:41:51.065Z,61.61
2023-05-04T22:44:29.997Z,61.43
2023-05-04T22:47:21.788Z,61.70
2023-05-04T22:50:16.820Z,61.99
2023-05-04T22:59:00.050Z,62.36
2023-05-04T23:01:30.842Z,62.81
2023-05-04T23:04:10.856Z,63.00
2023-05-04T23:12:24.678Z,63.44
2023-05-04T23:18:13.252Z,63.09
2023-05-04T23:20:54.430Z,63.50
2023-05-04T23:23:30.533Z,63.90
2023-05-04T23:26:30.676Z,63.39
2023-05-04T23:29:08.131Z,63.70
2023-05-04T23:31:55.018Z,63.56
2023-05-04T23:34:29.007Z,63.91
2023-05-04T23:37:06.388Z,63.54
2023-05-04T23:43:21.629Z,63.15
2023-05-04T23:46:15.089Z,63.12
2023-05-04T23:49:06.128Z,63.38
2023-05-04T23:55:02.277Z,63.70
